createdAt,value
2023-01-31T00:00:26.547Z,6.3
2023-01-31T00:02:26.330Z,7
2023-01-31T00:04:26.289Z,6.8
2023-01-31T00:06:28.021Z,5.8
2023-01-31T00:08:25.844Z,7
2023-01-31T00:10:25.771Z,7
2023-01-31T00:12:25.602Z,6.8
2023-01-31T00:14:25.508Z,7.1
2023-01-31T00:16:26.397Z,8.3
2023-01-31T00:18:26.623Z,6.3
2023-01-31T00:20:25.172Z,8.3
2023-01-31T00:22:24.898Z,9.1
2023-01-31T00:24:24.776Z,7.2
2023-01-31T00:26:26.675Z,10.1
2023-01-31T00:28:24.490Z,7.7
2023-01-31T00:30:24.597Z,7.8
2023-01-31T00:32:24.654Z,6.7
2023-01-31T00:34:24.195Z,8.1
2023-01-31T00:36:27.093Z,7.4
2023-01-31T00:38:26.017Z,7.7
2023-01-31T00:40:23.655Z,7.5
2023-01-31T00:42:23.813Z,6.9
2023-01-31T00:44:23.553Z,8.7
2023-01-31T00:46:23.962Z,7.6
2023-01-31T00:48:23.804Z,8.2
2023-01-31T00:50:23.168Z,7.2
2023-01-31T00:52:23.103Z,6.5
2023-01-31T00:54:23.022Z,7
2023-01-31T00:56:24.320Z,7.2
2023-01-31T00:58:22.637Z,7.5
2023-01-31T01:00:22.787Z,7.7
2023-01-31T01:02:22.450Z,8.6
2023-01-31T01:04:22.288Z,8.9
2023-01-31T01:06:24.785Z,7.8
2023-01-31T01:08:21.912Z,7.5
2023-01-31T01:10:21.970Z,8.6
2023-01-31T01:12:21.711Z,7.3
2023-01-31T01:14:21.589Z,7.7
2023-01-31T01:16:23.939Z,9.3
2023-01-31T01:18:21.235Z,7.6
2023-01-31T01:20:21.290Z,7.6
2023-01-31T01:22:21.085Z,6.9
2023-01-31T01:24:21.204Z,8
2023-01-31T01:26:24.311Z,6.7
2023-01-31T01:28:20.702Z,8.3
2023-01-31T01:30:20.599Z,6.1
2023-01-31T01:32:20.687Z,8
2023-01-31T01:34:20.323Z,11.1
2023-01-31T01:36:21.386Z,9.1
2023-01-31T01:38:20.069Z,7.3
2023-01-31T01:40:20.013Z,8.3
2023-01-31T01:42:22.303Z,6.5
2023-01-31T01:44:44.855Z,8.8
2023-01-31T01:46:24.836Z,6.6
2023-01-31T01:48:19.873Z,6.9
2023-01-31T01:50:27.600Z,7.9
2023-01-31T01:52:20.472Z,7.5
2023-01-31T01:54:25.797Z,7.6
2023-01-31T01:56:25.151Z,8.5
2023-01-31T01:58:25.114Z,10.9
2023-01-31T02:00:21.832Z,7.2
2023-01-31T02:02:19.148Z,9.1
2023-01-31T02:04:23.074Z,7.9
2023-01-31T02:06:19.074Z,7.9
2023-01-31T02:08:22.423Z,8.6
2023-01-31T02:10:23.535Z,7.3
2023-01-31T02:12:17.814Z,8.1
2023-01-31T02:14:18.467Z,8.1
2023-01-31T02:16:17.982Z,8.2
2023-01-31T02:18:20.159Z,7.2
2023-01-31T02:20:33.348Z,7.3
2023-01-31T02:22:21.710Z,8.6
2023-01-31T02:24:52.580Z,8.2
2023-01-31T02:26:40.062Z,8.9
2023-01-31T02:28:35.678Z,8
2023-01-31T02:30:41.389Z,10.7
2023-01-31T02:32:35.088Z,7.1
2023-01-31T02:34:23.886Z,8.6
2023-01-31T02:36:29.323Z,9
2023-01-31T02:38:31.461Z,7.7
2023-01-31T02:40:23.036Z,9.3
2023-01-31T02:42:26.472Z,7.2
2023-01-31T02:44:23.593Z,8.1
2023-01-31T02:46:18.766Z,8.8
2023-01-31T02:48:26.962Z,7.8
2023-01-31T02:50:26.221Z,7.4
2023-01-31T02:52:28.974Z,8.4
2023-01-31T02:54:20.563Z,11
2023-01-31T02:56:20.551Z,8.7
2023-01-31T02:58:17.479Z,10
2023-01-31T03:00:15.629Z,8.9
2023-01-31T03:02:14.442Z,9.5
2023-01-31T03:04:14.959Z,10.1
2023-01-31T03:06:43.411Z,9.5
2023-01-31T03:08:14.736Z,7.9
2023-01-31T03:10:26.500Z,9.7
2023-01-31T03:12:25.969Z,10.9
2023-01-31T03:14:23.731Z,11.3
2023-01-31T03:16:24.202Z,9.6
2023-01-31T03:18:22.074Z,12.4
2023-01-31T03:20:18.901Z,11.8
2023-01-31T03:22:18.477Z,10.2
2023-01-31T03:24:14.577Z,12.6
2023-01-31T03:26:13.520Z,10.8
2023-01-31T03:28:17.523Z,9.2
2023-01-31T03:30:18.561Z,10.4
2023-01-31T03:32:23.802Z,10
2023-01-31T03:34:15.787Z,9.1
2023-01-31T03:36:26.655Z,10.5
2023-01-31T03:38:17.676Z,9.2
2023-01-31T03:40:18.968Z,13.1
2023-01-31T03:42:18.645Z,9.8
2023-01-31T03:44:20.117Z,10.1
2023-01-31T03:46:16.890Z,14.4
2023-01-31T03:48:13.187Z,10.8
2023-01-31T03:50:17.546Z,10
2023-01-31T03:52:15.015Z,11.3
2023-01-31T03:54:18.169Z,9.3
2023-01-31T03:56:15.604Z,9.5
2023-01-31T03:58:14.317Z,9.4
2023-01-31T04:00:18.371Z,12.4
2023-01-31T04:02:16.246Z,10.4
2023-01-31T04:04:16.522Z,13.2
2023-01-31T04:06:12.356Z,9
2023-01-31T04:08:10.923Z,13.4
2023-01-31T04:10:14.723Z,13.6
2023-01-31T04:12:13.090Z,10.3
2023-01-31T04:14:10.518Z,11.5
2023-01-31T04:16:10.062Z,9.5
2023-01-31T04:18:09.876Z,12.4
2023-01-31T04:20:10.963Z,12.8
2023-01-31T04:22:09.614Z,13.7
2023-01-31T04:24:10.312Z,12.3
2023-01-31T04:26:09.980Z,10.6
2023-01-31T04:28:09.676Z,11.8
2023-01-31T04:30:10.794Z,12.4
2023-01-31T04:32:09.456Z,12
2023-01-31T04:34:09.358Z,14.1
2023-01-31T04:36:10.130Z,12.3
2023-01-31T04:38:08.807Z,12.6
2023-01-31T04:40:10.838Z,13.2
2023-01-31T04:42:08.382Z,13
2023-01-31T04:44:08.161Z,13
2023-01-31T04:46:08.144Z,12.4
2023-01-31T04:48:07.865Z,12.7
2023-01-31T04:50:08.971Z,11.6
2023-01-31T04:52:08.304Z,13.6
2023-01-31T04:54:08.142Z,15.3
2023-01-31T04:56:08.089Z,12.6
2023-01-31T04:58:07.740Z,14.1
2023-01-31T05:00:09.070Z,14.2
2023-01-31T05:02:07.338Z,13.2
2023-01-31T05:04:07.080Z,15.1
2023-01-31T05:06:07.003Z,14.6
2023-01-31T05:08:06.825Z,13.8
2023-01-31T05:10:07.790Z,14.1
2023-01-31T05:12:07.401Z,13.9
2023-01-31T05:14:06.965Z,14.7
2023-01-31T05:16:07.633Z,16.2
2023-01-31T05:18:06.699Z,14
2023-01-31T05:20:06.937Z,13.8
2023-01-31T05:22:06.354Z,15.1
2023-01-31T05:24:07.620Z,13.5
2023-01-31T05:26:05.509Z,15
2023-01-31T05:28:05.554Z,29.6
2023-01-31T05:30:06.692Z,16.1
2023-01-31T05:32:05.749Z,14.9
2023-01-31T05:34:05.223Z,16.6
2023-01-31T05:36:05.991Z,18.9
2023-01-31T05:38:05.235Z,18.5
2023-01-31T05:40:05.598Z,16.1
2023-01-31T05:42:04.628Z,20.8
2023-01-31T05:44:04.958Z,18.3
2023-01-31T05:46:04.676Z,25.2
2023-01-31T05:48:04.903Z,20.4
2023-01-31T05:50:04.886Z,15.8
2023-01-31T05:52:04.105Z,16.4
2023-01-31T05:54:04.310Z,16.9
2023-01-31T05:56:04.196Z,17.4
2023-01-31T05:58:04.068Z,16.7
2023-01-31T06:00:12.251Z,16.2
2023-01-31T06:02:03.586Z,20
2023-01-31T06:04:03.445Z,18.6
2023-01-31T06:06:03.487Z,17.2
2023-01-31T06:08:03.231Z,16.6
2023-01-31T06:10:05.255Z,16.5
2023-01-31T06:12:03.057Z,17.9
2023-01-31T06:14:03.008Z,21
2023-01-31T06:16:03.027Z,18
2023-01-31T06:18:02.879Z,20.4
2023-01-31T06:20:03.640Z,21.7
2023-01-31T06:22:02.494Z,19.8
2023-01-31T06:24:02.431Z,19
2023-01-31T06:26:02.145Z,18.6
2023-01-31T06:28:02.059Z,20.9
2023-01-31T06:30:02.025Z,19.1
2023-01-31T06:32:01.912Z,19.8
2023-01-31T06:34:01.717Z,19.5
2023-01-31T06:36:02.266Z,19.3
2023-01-31T06:38:01.799Z,24
2023-01-31T06:40:01.558Z,18.7
2023-01-31T06:42:01.364Z,19.4
2023-01-31T06:44:01.476Z,19.8
2023-01-31T06:46:01.349Z,22.2
2023-01-31T06:48:01.140Z,21.7
2023-01-31T06:50:00.862Z,19.1
2023-01-31T06:52:00.709Z,22.9
2023-01-31T06:54:00.772Z,21.1
2023-01-31T06:56:00.532Z,18
2023-01-31T06:58:00.427Z,20.8
2023-01-31T07:00:00.339Z,20.2
2023-01-31T07:02:00.135Z,18.7
2023-01-31T07:03:59.955Z,17.3
2023-01-31T07:05:59.977Z,16.6
2023-01-31T07:07:59.836Z,17.6
2023-01-31T07:09:59.753Z,17.6
2023-01-31T07:12:01.210Z,19.4
2023-01-31T07:13:59.436Z,17.8
2023-01-31T07:15:59.275Z,20.3
2023-01-31T07:17:59.586Z,15.7
2023-01-31T07:19:59.352Z,16.7
2023-01-31T07:21:58.917Z,19.3
2023-01-31T07:23:58.907Z,19
2023-01-31T07:26:01.878Z,16.4
2023-01-31T07:27:58.819Z,17.9
2023-01-31T07:29:58.512Z,16.9
2023-01-31T07:31:58.408Z,17.3
2023-01-31T07:33:58.389Z,22.5
2023-01-31T07:36:00.219Z,20.9
2023-01-31T07:37:58.108Z,17.2
2023-01-31T07:39:57.949Z,22.4
2023-01-31T07:41:58.182Z,17
2023-01-31T07:43:58.425Z,17.9
2023-01-31T07:45:58.070Z,19
2023-01-31T07:47:58.190Z,23.5
2023-01-31T07:49:57.552Z,17.5
2023-01-31T07:51:57.369Z,16.9
2023-01-31T07:53:57.282Z,16.9
2023-01-31T07:56:06.157Z,16.9
2023-01-31T07:57:57.023Z,22.3
2023-01-31T07:59:56.947Z,22.2
2023-01-31T08:01:56.819Z,19.5
2023-01-31T08:03:58.128Z,22.8
2023-01-31T08:05:56.630Z,17.6
2023-01-31T08:07:56.565Z,19.2
2023-01-31T08:09:56.466Z,19.1
2023-01-31T08:11:56.506Z,18.4
2023-01-31T08:13:56.247Z,19.9
2023-01-31T08:15:56.173Z,23.2
2023-01-31T08:17:55.963Z,22
2023-01-31T08:19:55.909Z,21.6
2023-01-31T08:21:55.824Z,19.2
2023-01-31T08:23:55.675Z,20
2023-01-31T08:26:00.056Z,19.5
2023-01-31T08:27:56.770Z,19.9
2023-01-31T08:29:55.469Z,26.3
2023-01-31T08:31:55.602Z,21.6
2023-01-31T08:33:55.556Z,19.4
2023-01-31T08:35:55.210Z,18.1
2023-01-31T08:38:03.689Z,21.6
2023-01-31T08:39:54.945Z,19.6
2023-01-31T08:41:54.845Z,21.3
2023-01-31T08:43:57.538Z,17.5
2023-01-31T08:45:55.584Z,23
2023-01-31T08:47:54.758Z,19
2023-01-31T08:49:54.484Z,25.3
2023-01-31T08:51:54.341Z,21.6
2023-01-31T08:53:54.366Z,21.5
2023-01-31T08:55:58.249Z,19.5
2023-01-31T08:57:59.844Z,19.6
2023-01-31T08:59:54.031Z,21.6
2023-01-31T09:01:53.938Z,25.2
2023-01-31T09:03:53.820Z,21
2023-01-31T09:05:53.770Z,26.2
2023-01-31T09:07:54.311Z,23
2023-01-31T09:09:53.562Z,24.6
2023-01-31T09:11:53.448Z,20
2023-01-31T09:13:53.365Z,28.6
2023-01-31T09:16:03.007Z,30.4
2023-01-31T09:17:53.306Z,21.5
2023-01-31T09:19:53.389Z,22
2023-01-31T09:21:53.053Z,19.6
2023-01-31T09:23:56.371Z,21
2023-01-31T09:25:53.823Z,23
2023-01-31T09:27:53.156Z,18.7
2023-01-31T09:29:52.720Z,21.6
2023-01-31T09:31:53.182Z,21.4
2023-01-31T09:33:52.527Z,21.7
2023-01-31T09:35:56.403Z,23.8
2023-01-31T09:37:52.694Z,20.3
2023-01-31T09:39:52.616Z,19.6
2023-01-31T09:41:56.258Z,33.3
2023-01-31T09:43:57.487Z,18.6
2023-01-31T09:45:55.718Z,21.9
2023-01-31T09:47:56.047Z,21.3
2023-01-31T09:49:55.993Z,20
2023-01-31T09:51:55.328Z,18.8
2023-01-31T09:53:54.399Z,19.2
2023-01-31T09:55:59.961Z,18.1
2023-01-31T09:58:00.822Z,22.3
2023-01-31T10:00:05.160Z,19.2
2023-01-31T10:01:59.241Z,20
2023-01-31T10:04:07.230Z,22.5
2023-01-31T10:05:54.838Z,23.5
2023-01-31T10:08:00.958Z,18.7
2023-01-31T10:09:56.670Z,29.4
2023-01-31T10:11:55.623Z,24.3
2023-01-31T10:13:56.346Z,19.9
2023-01-31T10:15:55.940Z,21.1
2023-01-31T10:17:57.080Z,21.5
2023-01-31T10:19:56.499Z,21.6
2023-01-31T10:21:55.986Z,18.3
2023-01-31T10:23:55.480Z,25.1
2023-01-31T10:25:55.173Z,23.7
2023-01-31T10:27:53.913Z,22.1
2023-01-31T10:29:53.162Z,22.2
2023-01-31T10:31:56.163Z,22.7
2023-01-31T10:33:54.710Z,18.8
2023-01-31T10:35:54.450Z,25.2
2023-01-31T10:37:55.235Z,19.4
2023-01-31T10:39:53.621Z,24.9
2023-01-31T10:42:05.971Z,21
2023-01-31T10:43:58.797Z,18.3
2023-01-31T10:45:49.179Z,19.8
2023-01-31T10:47:52.006Z,20.9
2023-01-31T10:49:50.715Z,23.5
2023-01-31T10:52:04.024Z,17.8
2023-01-31T10:54:04.619Z,25.5
2023-01-31T10:55:59.038Z,17.9
2023-01-31T10:57:49.755Z,20.3
2023-01-31T10:59:49.988Z,25.5
2023-01-31T11:01:48.453Z,18.5
2023-01-31T11:03:50.414Z,20.7
2023-01-31T11:05:51.617Z,19.6
2023-01-31T11:07:48.792Z,23.9
2023-01-31T11:09:50.221Z,24.6
2023-01-31T11:11:57.791Z,23.7
2023-01-31T11:13:57.935Z,23
2023-01-31T11:15:50.446Z,22.4
2023-01-31T11:17:47.970Z,18.7
2023-01-31T11:19:49.816Z,19.4
2023-01-31T11:21:50.792Z,26.3
2023-01-31T11:23:48.236Z,23.4
2023-01-31T11:25:49.356Z,21.9
2023-01-31T11:27:48.188Z,22.6
2023-01-31T11:29:50.130Z,21.9
2023-01-31T11:31:47.670Z,24
2023-01-31T11:33:56.619Z,23.9
2023-01-31T11:35:51.879Z,18.6
2023-01-31T11:37:54.124Z,22.2
2023-01-31T11:39:55.752Z,22.5
2023-01-31T11:41:48.153Z,26.6
2023-01-31T11:43:46.034Z,21.5
2023-01-31T11:45:54.551Z,18.7
2023-01-31T11:47:49.070Z,20.4
2023-01-31T11:49:48.299Z,17.7
2023-01-31T11:51:47.177Z,22.1
2023-01-31T11:53:50.084Z,19.6
2023-01-31T11:55:47.150Z,20.5
2023-01-31T11:57:45.787Z,20.7
2023-01-31T11:59:50.235Z,20.5
2023-01-31T12:01:47.915Z,22
2023-01-31T12:04:01.422Z,18.7
2023-01-31T12:05:49.466Z,18
2023-01-31T12:07:48.096Z,18.6
2023-01-31T12:09:44.957Z,18.3
2023-01-31T12:11:51.388Z,23.4
2023-01-31T12:13:46.671Z,19.6
2023-01-31T12:15:49.586Z,19
2023-01-31T12:17:48.091Z,16.1
2023-01-31T12:19:58.652Z,18.5
2023-01-31T12:21:51.939Z,17.4
2023-01-31T12:23:58.748Z,17.2
2023-01-31T12:25:59.893Z,18.7
2023-01-31T12:27:58.886Z,17.6
2023-01-31T12:30:01.642Z,29
2023-01-31T12:31:58.725Z,23
2023-01-31T12:33:55.038Z,18.4
2023-01-31T12:35:56.369Z,19.6
2023-01-31T12:37:56.802Z,20.7
2023-01-31T12:40:04.853Z,19
2023-01-31T12:41:57.257Z,23.5
2023-01-31T12:44:00.548Z,17.7
2023-01-31T12:45:53.584Z,17.3
2023-01-31T12:48:10.229Z,17.4
2023-01-31T12:49:57.037Z,18.6
2023-01-31T12:51:51.745Z,16.4
2023-01-31T12:53:55.246Z,19.9
2023-01-31T12:55:54.437Z,21.8
2023-01-31T12:57:52.872Z,18.3
2023-01-31T12:59:50.071Z,21
2023-01-31T13:01:48.006Z,17.6
2023-01-31T13:03:58.516Z,24.2
2023-01-31T13:05:47.761Z,17.4
2023-01-31T13:07:48.009Z,18.9
2023-01-31T13:09:45.831Z,19.4
2023-01-31T13:11:47.820Z,17.5
2023-01-31T13:13:47.320Z,17.7
2023-01-31T13:15:48.065Z,20.9
2023-01-31T13:17:44.106Z,19.4
2023-01-31T13:19:46.482Z,20.1
2023-01-31T13:21:46.061Z,19.6
2023-01-31T13:23:44.563Z,28
2023-01-31T13:25:49.438Z,19.8
2023-01-31T13:27:46.368Z,23.7
2023-01-31T13:29:44.695Z,17.1
2023-01-31T13:31:46.442Z,17
2023-01-31T13:33:47.147Z,22
2023-01-31T13:35:43.294Z,19.5
2023-01-31T13:37:44.130Z,19.8
2023-01-31T13:39:43.383Z,25.9
2023-01-31T13:41:40.489Z,20
2023-01-31T13:43:40.364Z,17.9
2023-01-31T13:45:45.140Z,17.8
2023-01-31T13:47:48.210Z,19
2023-01-31T13:49:46.635Z,28
2023-01-31T13:51:43.210Z,20.2
2023-01-31T13:53:46.932Z,17.9
2023-01-31T13:55:43.925Z,23.6
2023-01-31T13:57:42.678Z,19.5
2023-01-31T13:59:39.835Z,20.1
2023-01-31T14:01:46.689Z,17.2
2023-01-31T14:04:11.906Z,19
2023-01-31T14:05:58.049Z,19.9
2023-01-31T14:07:39.106Z,19.3
2023-01-31T14:09:42.959Z,19.3
2023-01-31T14:11:44.231Z,20.6
2023-01-31T14:13:42.189Z,18.4
2023-01-31T14:15:47.840Z,18.8
2023-01-31T14:17:58.224Z,18.2
2023-01-31T14:20:00.425Z,22
2023-01-31T14:21:51.846Z,18.9
2023-01-31T14:23:44.481Z,21.6
2023-01-31T14:25:41.645Z,20
2023-01-31T14:27:45.385Z,19.3
2023-01-31T14:29:42.378Z,20.8
2023-01-31T14:31:38.145Z,22.2
2023-01-31T14:33:37.824Z,19.9
2023-01-31T14:36:06.743Z,20.2
2023-01-31T14:37:44.614Z,18.3
2023-01-31T14:40:10.305Z,21.2
2023-01-31T14:41:54.852Z,16.7
2023-01-31T14:43:53.622Z,20.9
2023-01-31T14:45:58.398Z,19.3
2023-01-31T14:47:53.765Z,18.3
2023-01-31T14:50:01.418Z,18.8
2023-01-31T14:51:51.702Z,20.2
2023-01-31T14:54:03.817Z,17.4
2023-01-31T14:55:55.841Z,19.4
2023-01-31T14:57:41.746Z,20.8
2023-01-31T14:59:44.297Z,18.9
2023-01-31T15:01:36.945Z,17.5
2023-01-31T15:03:38.738Z,24.2
2023-01-31T15:05:43.612Z,19.8
2023-01-31T15:07:36.305Z,20.8
2023-01-31T15:09:38.870Z,20.3
2023-01-31T15:11:42.559Z,19.8
2023-01-31T15:13:41.222Z,19.9
2023-01-31T15:15:38.539Z,21
2023-01-31T15:17:40.308Z,21.3
2023-01-31T15:19:44.775Z,18.5
2023-01-31T15:21:42.239Z,19.5
2023-01-31T15:23:40.094Z,18.5
2023-01-31T15:25:42.893Z,22.6
2023-01-31T15:27:40.809Z,20.3
2023-01-31T15:29:49.818Z,22.8
2023-01-31T15:31:42.410Z,19
2023-01-31T15:33:41.437Z,20.6
2023-01-31T15:35:44.151Z,19.8
2023-01-31T15:37:36.233Z,20.8
2023-01-31T15:39:41.413Z,20.7
2023-01-31T15:41:38.648Z,21.1
2023-01-31T15:43:34.535Z,20.5
2023-01-31T15:45:34.914Z,21.9
2023-01-31T15:47:34.611Z,18.6
2023-01-31T15:49:42.055Z,19.9
2023-01-31T15:51:34.175Z,20.3
2023-01-31T15:53:34.129Z,18.9
2023-01-31T15:55:35.559Z,18.5
2023-01-31T15:57:40.313Z,19
2023-01-31T15:59:33.965Z,18.9
2023-01-31T16:01:34.267Z,18.5
2023-01-31T16:03:38.751Z,18.2
2023-01-31T16:05:35.638Z,19.1
2023-01-31T16:07:34.458Z,29.7
2023-01-31T16:09:33.524Z,25.5
2023-01-31T16:11:34.943Z,20.1
2023-01-31T16:13:36.023Z,24.6
2023-01-31T16:15:33.544Z,19.1
2023-01-31T16:17:33.829Z,19.4
2023-01-31T16:19:34.424Z,19
2023-01-31T16:21:37.902Z,22
2023-01-31T16:23:34.361Z,24
2023-01-31T16:25:35.528Z,21.7
2023-01-31T16:27:37.004Z,22.3
2023-01-31T16:29:39.206Z,20.8
2023-01-31T16:31:34.339Z,21
2023-01-31T16:33:32.816Z,18
2023-01-31T16:35:32.080Z,22.1
2023-01-31T16:37:34.781Z,21
2023-01-31T16:39:37.286Z,19.9
2023-01-31T16:41:48.894Z,21.3
2023-01-31T16:43:33.829Z,20.6
2023-01-31T16:45:33.063Z,20.5
2023-01-31T16:47:46.885Z,19.6
2023-01-31T16:49:34.930Z,19.6
2023-01-31T16:51:42.040Z,20
2023-01-31T16:53:32.636Z,20.3
2023-01-31T16:55:31.223Z,22.9
2023-01-31T16:57:38.403Z,20.5
2023-01-31T16:59:48.080Z,19.7
2023-01-31T17:01:32.961Z,22.3
2023-01-31T17:03:31.107Z,19.4
2023-01-31T17:05:39.767Z,18.7
2023-01-31T17:07:34.248Z,19.9
2023-01-31T17:09:30.761Z,20.3
2023-01-31T17:11:42.260Z,20
2023-01-31T17:13:37.740Z,20.8
2023-01-31T17:15:30.469Z,20.5
2023-01-31T17:17:32.935Z,23.3
2023-01-31T17:19:30.155Z,26
2023-01-31T17:21:37.411Z,20
2023-01-31T17:23:30.090Z,21
2023-01-31T17:25:33.503Z,19.3
2023-01-31T17:27:29.868Z,22.1
2023-01-31T17:29:29.856Z,21.5
2023-01-31T17:31:29.950Z,21.7
2023-01-31T17:33:29.520Z,20.9
2023-01-31T17:35:32.060Z,18.9
2023-01-31T17:37:31.832Z,21.1
2023-01-31T17:39:29.382Z,19.6
2023-01-31T17:41:29.365Z,22.2
2023-01-31T17:43:30.225Z,17.6
2023-01-31T17:45:30.507Z,20.3
2023-01-31T17:47:29.125Z,20.2
2023-01-31T17:49:29.089Z,18.5
2023-01-31T17:51:28.895Z,18.9
2023-01-31T17:53:34.561Z,20.1
2023-01-31T17:55:30.161Z,23.4
2023-01-31T17:57:29.273Z,20.7
2023-01-31T17:59:28.680Z,21
2023-01-31T18:01:30.827Z,20.5
2023-01-31T18:03:28.374Z,21
2023-01-31T18:05:38.672Z,19.2
2023-01-31T18:07:28.839Z,23.2
2023-01-31T18:09:28.621Z,18.9
2023-01-31T18:11:28.134Z,19.7
2023-01-31T18:13:28.353Z,21.8
2023-01-31T18:15:28.609Z,22.1
2023-01-31T18:17:28.115Z,22.9
2023-01-31T18:19:28.856Z,22.4
2023-01-31T18:21:27.657Z,20.3
2023-01-31T18:23:27.659Z,21.4
2023-01-31T18:25:27.771Z,22
2023-01-31T18:27:28.646Z,22.9
2023-01-31T18:29:28.701Z,25.7
2023-01-31T18:31:27.383Z,20.5
2023-01-31T18:33:27.085Z,23.5
2023-01-31T18:35:27.059Z,24.2
2023-01-31T18:37:27.253Z,23.8
2023-01-31T18:39:26.961Z,33.9
2023-01-31T18:41:26.653Z,25.5
2023-01-31T18:43:29.370Z,21.7
2023-01-31T18:45:26.567Z,23.3
2023-01-31T18:47:26.475Z,24.1
2023-01-31T18:49:26.407Z,22.8
2023-01-31T18:51:26.445Z,24.5
2023-01-31T18:53:26.214Z,23.6
2023-01-31T18:55:26.211Z,27.2
2023-01-31T18:57:26.022Z,26.9
2023-01-31T18:59:25.932Z,23.7
2023-01-31T19:01:27.020Z,22.9
2023-01-31T19:03:25.849Z,24.9
2023-01-31T19:05:25.827Z,23.8
2023-01-31T19:07:25.587Z,22.7
2023-01-31T19:09:25.446Z,30.4
2023-01-31T19:11:27.326Z,25.3
2023-01-31T19:13:26.164Z,25.6
2023-01-31T19:15:25.185Z,26.6
2023-01-31T19:17:25.235Z,25.2
2023-01-31T19:19:25.194Z,26.3
2023-01-31T19:21:26.669Z,23.9
2023-01-31T19:23:25.797Z,25.6
2023-01-31T19:25:24.748Z,26.4
2023-01-31T19:27:25.087Z,26.4
2023-01-31T19:29:24.593Z,24.4
2023-01-31T19:31:26.362Z,23.8
2023-01-31T19:33:24.322Z,22.5
2023-01-31T19:35:24.205Z,24
2023-01-31T19:37:24.219Z,24.1
2023-01-31T19:39:24.074Z,25.3
2023-01-31T19:41:25.937Z,29.1
2023-01-31T19:43:23.848Z,25.1
2023-01-31T19:45:24.259Z,35.7
2023-01-31T19:47:23.829Z,28.2
2023-01-31T19:49:23.566Z,23.8
2023-01-31T19:51:24.102Z,23.8
2023-01-31T19:53:24.606Z,21.3
2023-01-31T19:55:23.814Z,22.2
2023-01-31T19:57:23.419Z,26.2
2023-01-31T19:59:23.025Z,23.9
2023-01-31T20:01:23.758Z,26
2023-01-31T20:03:23.167Z,27.4
2023-01-31T20:05:23.295Z,24.5
2023-01-31T20:07:22.795Z,26.5
2023-01-31T20:09:22.778Z,25.1
2023-01-31T20:11:23.623Z,23.6
2023-01-31T20:13:22.585Z,25.5
2023-01-31T20:15:22.517Z,23.3
2023-01-31T20:17:22.530Z,26.7
2023-01-31T20:19:22.427Z,22.7
2023-01-31T20:21:22.616Z,24.8
2023-01-31T20:23:22.355Z,24.5
2023-01-31T20:25:22.088Z,27.2
2023-01-31T20:27:23.384Z,23.8
2023-01-31T20:29:21.971Z,24.7
2023-01-31T20:31:21.922Z,26.1
2023-01-31T20:33:22.343Z,23.3
2023-01-31T20:35:21.752Z,24.3
2023-01-31T20:37:21.516Z,27.2
2023-01-31T20:39:21.603Z,24.9
2023-01-31T20:41:21.496Z,25.8
2023-01-31T20:43:23.530Z,26.9
2023-01-31T20:45:21.355Z,25.5
2023-01-31T20:47:21.206Z,25.7
2023-01-31T20:49:21.067Z,24.5
2023-01-31T20:51:21.073Z,27.9
2023-01-31T20:53:21.466Z,27.2
2023-01-31T20:55:21.249Z,26.6
2023-01-31T20:57:20.747Z,26.4
2023-01-31T20:59:20.719Z,26.2
2023-01-31T21:01:20.643Z,31.8
2023-01-31T21:03:21.838Z,27
2023-01-31T21:05:20.389Z,24.8
2023-01-31T21:07:20.410Z,29.3
2023-01-31T21:09:23.026Z,28.9
2023-01-31T21:11:20.141Z,26
2023-01-31T21:13:21.525Z,24.7
2023-01-31T21:15:20.119Z,30.3
2023-01-31T21:17:24.812Z,28.6
2023-01-31T21:19:19.912Z,28.6
2023-01-31T21:21:20.481Z,27.9
2023-01-31T21:23:19.826Z,25.8
2023-01-31T21:25:19.658Z,27.3
2023-01-31T21:27:19.520Z,24.5
2023-01-31T21:29:19.605Z,27.3
2023-01-31T21:31:20.770Z,30.2
2023-01-31T21:33:19.333Z,25.9
2023-01-31T21:35:19.248Z,26.2
2023-01-31T21:37:19.081Z,29.6
2023-01-31T21:39:19.221Z,27.3
2023-01-31T21:41:19.082Z,30.2
2023-01-31T21:43:18.789Z,30.4
2023-01-31T21:45:19.400Z,29.1
2023-01-31T21:47:19.325Z,32
2023-01-31T21:49:19.430Z,29.7
2023-01-31T21:51:20.286Z,26.8
2023-01-31T21:53:18.961Z,30
2023-01-31T21:55:18.466Z,27.8
2023-01-31T21:57:19.456Z,32.9
2023-01-31T21:59:18.165Z,28.4
2023-01-31T22:01:20.578Z,31.9
2023-01-31T22:03:18.175Z,31.1
2023-01-31T22:05:17.883Z,29.2
2023-01-31T22:07:17.821Z,28.9
2023-01-31T22:09:18.049Z,29
2023-01-31T22:11:17.972Z,31.6
2023-01-31T22:13:17.637Z,30.2
2023-01-31T22:15:17.371Z,31
2023-01-31T22:17:17.209Z,31.5
2023-01-31T22:19:17.368Z,28.4
2023-01-31T22:21:19.149Z,30.2
2023-01-31T22:23:16.941Z,33.6
2023-01-31T22:25:16.965Z,31.1
2023-01-31T22:27:16.789Z,32.2
2023-01-31T22:29:16.729Z,31.6
2023-01-31T22:31:17.355Z,35.5
2023-01-31T22:33:16.720Z,31.9
2023-01-31T22:35:16.426Z,34.7
2023-01-31T22:37:16.360Z,33.8
2023-01-31T22:39:16.438Z,31.2
2023-01-31T22:41:19.900Z,30.7
2023-01-31T22:43:17.917Z,32.1
2023-01-31T22:45:16.269Z,31.3
2023-01-31T22:47:15.857Z,31.6
2023-01-31T22:49:15.854Z,32.3
2023-01-31T22:51:17.905Z,30.7
2023-01-31T22:53:16.039Z,32.2
2023-01-31T22:55:15.553Z,31.3
2023-01-31T22:57:15.327Z,31.1
2023-01-31T22:59:15.275Z,31
2023-01-31T23:01:17.364Z,31.2
2023-01-31T23:03:15.294Z,34
2023-01-31T23:05:14.982Z,28.1
2023-01-31T23:07:14.876Z,26.9
2023-01-31T23:09:14.803Z,28.7
2023-01-31T23:11:16.280Z,25.9
2023-01-31T23:13:14.566Z,30.9
2023-01-31T23:15:15.376Z,29.8
2023-01-31T23:17:14.372Z,28
2023-01-31T23:19:15.285Z,29.1
2023-01-31T23:21:16.572Z,27.1
2023-01-31T23:23:14.224Z,26
2023-01-31T23:25:14.605Z,26.6
2023-01-31T23:27:13.959Z,25.3
2023-01-31T23:29:13.836Z,29
2023-01-31T23:31:13.901Z,29.1
2023-01-31T23:33:14.205Z,27.7
2023-01-31T23:35:13.531Z,26.7
2023-01-31T23:37:13.527Z,26.6
2023-01-31T23:39:13.429Z,28.3
2023-01-31T23:41:13.506Z,28.2
2023-01-31T23:43:13.255Z,29.1
2023-01-31T23:45:13.201Z,31.3
2023-01-31T23:47:13.073Z,28.4
2023-01-31T23:49:13.009Z,30.3
2023-01-31T23:51:12.910Z,25.8
2023-01-31T23:53:13.420Z,30.3
2023-01-31T23:55:12.652Z,28.6
2023-01-31T23:57:12.628Z,29
2023-01-31T23:59:12.555Z,30.3
